Flight Track Log - Related Links

Times and Time Zones

All times are in EDT time to prevent confusion due to time zone crossing. See the TAM8090 flight status page for this flight to view local times or setup timezone preferences in your user account.

Time Position Orientation Groundspeed Altitude Reporting Facility
EDT Latitude Longitude Course Direction KTS MPH feet Rate Location/Type
Sun 23:11:35 -23.4220 -46.4390 77° East 187 215 3,100  Level FlightAware
Sun 23:11:50 -23.4190 -46.4270 75° East 189 217 3,600 2,000 Climbing FlightAware
Sun 23:12:05 -23.4230 -46.4120 106° East 187 215 4,100 2,000 Climbing FlightAware
Sun 23:12:20 -23.4330 -46.4040 144° Southeast 187 215 4,600 1,800 Climbing FlightAware
Sun 23:12:45 -23.4550 -46.4110 196° South 210 242 5,300 1,200 Climbing FlightAware
Sun 23:13:15 -23.4740 -46.4390 234° Southwest 247 284 5,700 873 Climbing FlightAware
Sun 23:13:40 -23.4920 -46.4670 235° Southwest 277 319 6,100 1,418 Climbing FlightAware
Sun 23:14:10 -23.5170 -46.5020 232° Southwest 294 338 7,000 2,100 Climbing FlightAware
Sun 23:14:40 -23.5420 -46.5370 232° Southwest 295 339 8,200 2,073 Climbing FlightAware
Sun 23:15:05 -23.5620 -46.5650 232° Southwest 305 351 8,900 1,950 Climbing FlightAware
Sun 23:15:20 -23.5730 -46.5870 241° Southwest 309 356 9,500 2,267 Climbing FlightAware
Sun 23:15:50 -23.5770 -46.6340 265° West 315 362 10,600 1,371 Climbing FlightAware
Sun 23:17:40 -23.5590 -46.8360 276° West 408 470 12,700 1,731 Climbing FlightAware
Sun 23:20:00 -23.3157 -47.0240 325° Northwest  Level Estimated
Sun 23:20:10 -23.5290 -47.1540 325° Northwest 434 499 18,100  Level FlightAware
Sun 23:21:40 -23.5080 -47.3530 277° West 454 522 20,800 1,800 Climbing FlightAware
Sun 23:22:20 -23.4650 -47.4400 298° West 463 533 22,000 1,765 Climbing FlightAware
Sun 23:23:05 -23.4100 -47.5210 306° West 465 535 23,300 1,624 Climbing FlightAware
Sun 23:23:45 -23.3560 -47.6000 307° West 474 545 24,300 1,650 Climbing FlightAware
Sun 23:24:25 -23.3030 -47.6780 306° West 482 555 25,500 1,694 Climbing FlightAware
Sun 23:25:10 -23.2440 -47.7650 306° West 487 560 26,700 1,624 Climbing FlightAware
Sun 23:25:50 -23.1880 -47.8460 307° West 491 565 27,800 1,624 Climbing FlightAware
Sun 23:26:35 -23.1260 -47.9370 307° West 496 571 29,000 1,412 Climbing FlightAware
Sun 23:27:15 -23.0710 -48.0170 307° West 502 578 29,800 1,650 Climbing FlightAware
Sun 23:27:55 -23.0150 -48.0980 307° West 493 567 31,200 1,553 Climbing FlightAware
Sun 23:28:40 -22.9550 -48.1850 307° West 486 559 32,000 565 Climbing FlightAware
Sun 23:29:20 -22.9010 -48.2630 307° West 485 558 32,000  Level FlightAware
Sun 23:30:05 -22.8420 -48.3490 307° West 486 559 32,000  Level FlightAware
Sun 23:30:45 -22.7880 -48.4270 307° West 487 560 32,000  Level FlightAware
Sun 23:31:25 -22.7320 -48.5080 307° West 488 562 32,000  Level FlightAware
Sun 23:32:10 -22.6720 -48.5940 307° West 488 562 32,000  Level FlightAware
Sun 23:32:50 -22.6190 -48.6710 307° West 488 562 32,000  Level FlightAware
Sun 23:33:30 -22.5650 -48.7490 307° West 489 563 32,000  Level FlightAware
Sun 23:34:15 -22.5030 -48.8380 307° West 490 564 32,000  Level FlightAware
Sun 23:34:55 -22.4480 -48.9160 307° West 489 563 32,000  Level FlightAware
Sun 23:35:40 -22.3840 -49.0070 307° West 489 563 32,000  Level FlightAware
Sun 23:36:20 -22.3300 -49.0830 308° West 488 562 32,000  Level FlightAware
Sun 23:37:05 -22.2630 -49.1650 311° West 485 558 32,000  Level FlightAware
Sun 23:37:45 -22.2010 -49.2340 314° West 485 558 32,000  Level FlightAware
Sun 23:38:25 -22.1390 -49.3040 314° West 484 557 32,000  Level FlightAware
Sun 23:39:10 -22.0680 -49.3820 314° West 484 557 32,000  Level FlightAware
Sun 23:39:50 -22.0050 -49.4520 314° West 484 557 32,000  Level FlightAware
Sun 23:40:35 -21.9360 -49.5300 314° West 484 557 32,000  Level FlightAware
Sun 23:41:15 -21.8750 -49.5980 314° West 483 556 32,000  Level FlightAware
Sun 23:41:55 -21.8130 -49.6660 314° West 482 555 32,000  Level FlightAware
Sun 23:42:40 -21.7400 -49.7470 314° West 482 555 32,000  Level FlightAware
Sun 23:43:20 -21.6790 -49.8140 314° West 482 555 32,000  Level FlightAware
Sun 23:44:00 -21.6160 -49.8840 314° West 483 556 32,000  Level FlightAware
Sun 23:44:45 -21.5480 -49.9600 314° West 483 556 32,000  Level FlightAware
Sun 23:45:25 -21.4850 -50.0280 315° West 480 552 32,000  Level FlightAware
Sun 23:46:10 -21.4150 -50.1060 314° West 478 550 32,000  Level FlightAware
Sun 23:46:50 -21.3520 -50.1760 314° West 477 549 32,000  Level FlightAware
Sun 23:47:35 -21.2880 -50.2480 314° West 475 547 32,000  Level FlightAware
Sun 23:48:15 -21.2310 -50.3120 314° West 475 547 32,000  Level FlightAware
Sun 23:48:55 -21.1640 -50.3850 315° West 471 542 32,000  Level FlightAware
Sun 23:49:40 -21.0940 -50.4630 314° West 472 543 32,000  Level FlightAware
Sun 23:50:20 -21.0330 -50.5300 314° West 471 542 32,000  Level FlightAware
Sun 23:51:05 -20.9650 -50.6040 315° West 471 542 32,000  Level FlightAware
Sun 23:51:45 -20.9160 -50.6590 314° West 469 540 32,000  Level FlightAware
Sun 23:52:25 -20.8460 -50.7360 314° West 468 539 32,000  Level FlightAware
Sun 23:53:00 -20.7910 -50.7940 315° West 469 540 32,000  Level FlightAware
Sun 23:54:20 -20.7350 -50.8530 315° West 469 540 32,000  Level FlightAware
Sun 23:55:15 -20.5850 -51.0140 315° West 466 536 32,000  Level FlightAware
Sun 23:55:55 -20.5300 -51.0750 314° West 466 536 32,000  Level FlightAware
Sun 23:56:35 -20.4790 -51.1310 314° West 466 536 32,000  Level FlightAware
Sun 23:57:15 -20.4280 -51.1870 314° West 466 536 32,000  Level FlightAware
Sun 23:58:05 -20.3650 -51.2570 314° West 466 536 32,000  Level FlightAware
Sun 23:58:45 -20.3140 -51.3140 314° West 466 536 32,000  Level FlightAware
Sun 23:59:25 -20.2630 -51.3700 314° West 466 536 32,000  Level FlightAware
Mon 00:00:05 -20.2120 -51.4260 314° West 466 536 32,000  Level FlightAware
Mon 00:00:45 -20.1610 -51.4820 314° West 466 536 32,000  Level FlightAware
Mon 00:01:25 -20.1100 -51.5380 314° West 466 536 32,000  Level FlightAware
Mon 00:02:15 -20.0460 -51.6090 314° West 466 536 32,000  Level FlightAware
Mon 00:02:55 -19.9950 -51.6650 314° West 466 536 32,000  Level FlightAware
Mon 00:03:35 -19.9450 -51.7210 314° West 466 536 32,000  Level FlightAware
Mon 00:04:15 -19.8940 -51.7770 314° West 466 536 32,000  Level FlightAware
Mon 00:05:05 -19.8300 -51.8470 314° West 466 536 32,000 11 Level FlightAware
Mon 00:07:00 -19.6202 -51.9879 328° Northwest  Level Estimated
Mon 00:08:00 -19.5107 -52.0612 328° Northwest  Level Estimated
Mon 00:09:00 -19.4011 -52.1345 328° Northwest  Level Estimated
Mon 00:10:00 -19.2916 -52.2076 328° Northwest  Level Estimated
Mon 00:11:00 -19.1820 -52.2807 328° Northwest  Level Estimated
Mon 00:12:00 -19.0723 -52.3536 328° Northwest  Level Estimated
Mon 00:13:00 -18.9627 -52.4265 328° Northwest  Level Estimated
Mon 00:14:00 -18.8530 -52.4992 328° Northwest  Level Estimated
Mon 00:15:00 -18.7433 -52.5719 328° Northwest  Level Estimated
Mon 00:16:00 -18.6336 -52.6445 328° Northwest  Level Estimated
Mon 00:17:00 -18.5238 -52.7169 328° Northwest  Level Estimated
Mon 00:18:00 -18.4140 -52.7893 328° Northwest  Level Estimated
Mon 00:19:00 -18.3042 -52.8616 328° Northwest  Level Estimated
Mon 00:20:00 -18.1943 -52.9338 328° Northwest  Level Estimated
Mon 00:21:00 -18.0844 -53.0059 328° Northwest  Level Estimated
Mon 00:22:00 -17.9746 -53.0780 328° Northwest  Level Estimated
Mon 00:23:00 -17.8646 -53.1499 328° Northwest  Level Estimated
Mon 00:24:00 -17.7547 -53.2217 328° Northwest  Level Estimated
Mon 00:25:00 -17.6447 -53.2935 328° Northwest  Level Estimated
Mon 00:26:00 -17.5347 -53.3652 328° Northwest  Level Estimated
Mon 00:27:00 -17.4246 -53.4367 328° Northwest  Level Estimated
Mon 00:28:00 -17.3146 -53.5082 328° Northwest  Level Estimated
Mon 00:29:00 -17.2045 -53.5796 328° Northwest  Level Estimated
Mon 00:30:00 -17.0944 -53.6510 328° Northwest  Level Estimated
Mon 00:31:00 -16.9843 -53.7222 328° Northwest  Level Estimated
Mon 00:32:00 -16.8741 -53.7933 328° Northwest  Level Estimated
Mon 00:33:00 -16.7639 -53.8644 328° Northwest  Level Estimated
Mon 00:34:00 -16.6537 -53.9354 328° Northwest  Level Estimated
Mon 00:35:00 -16.5435 -54.0063 328° Northwest  Level Estimated
Mon 00:36:00 -16.4332 -54.0771 328° Northwest  Level Estimated
Mon 00:37:00 -16.3229 -54.1479 328° Northwest  Level Estimated
Mon 00:38:00 -16.2126 -54.2186 328° Northwest  Level Estimated
Mon 00:39:00 -16.1023 -54.2892 328° Northwest  Level Estimated
Mon 00:40:00 -15.9920 -54.3597 328° Northwest  Level Estimated
Mon 00:41:00 -15.8816 -54.4301 328° Northwest  Level Estimated
Mon 00:42:00 -15.7712 -54.5004 328° Northwest  Level Estimated
Mon 00:43:00 -15.6608 -54.5707 328° Northwest  Level Estimated
Mon 00:44:00 -15.5503 -54.6409 329° Northwest  Level Estimated
Mon 00:45:00 -15.4399 -54.7110 329° Northwest  Level Estimated
Mon 00:46:00 -15.3294 -54.7811 329° Northwest  Level Estimated
Mon 00:47:00 -15.2189 -54.8511 329° Northwest  Level Estimated
Mon 00:48:00 -15.1084 -54.9210 329° Northwest  Level Estimated
Mon 00:49:00 -14.9978 -54.9908 329° Northwest  Level Estimated
Mon 00:50:00 -14.8872 -55.0606 329° Northwest  Level Estimated
Mon 00:51:00 -14.7767 -55.1303 329° Northwest  Level Estimated
Mon 00:52:00 -14.6660 -55.1999 329° Northwest  Level Estimated
Mon 00:53:00 -14.5554 -55.2694 329° Northwest  Level Estimated
Mon 00:54:00 -14.4448 -55.3389 329° Northwest  Level Estimated
Mon 00:55:00 -14.3341 -55.4083 329° Northwest  Level Estimated
Mon 00:56:00 -14.2234 -55.4777 329° Northwest  Level Estimated
Mon 00:57:00 -14.1127 -55.5469 329° Northwest  Level Estimated
Mon 00:58:00 -14.0020 -55.6161 329° Northwest  Level Estimated
Mon 00:59:00 -13.8912 -55.6853 329° Northwest  Level Estimated
Mon 01:00:00 -13.7804 -55.7543 329° Northwest  Level Estimated
Mon 01:01:00 -13.6697 -55.8233 329° Northwest  Level Estimated
Mon 01:02:00 -13.5588 -55.8923 329° Northwest  Level Estimated
Mon 01:03:00 -13.4480 -55.9612 329° Northwest  Level Estimated
Mon 01:04:00 -13.3372 -56.0300 329° Northwest  Level Estimated
Mon 01:05:00 -13.2263 -56.0987 329° Northwest  Level Estimated
Mon 01:06:00 -13.1154 -56.1674 329° Northwest  Level Estimated
Mon 01:07:00 -13.0045 -56.2360 329° Northwest  Level Estimated
Mon 01:08:00 -12.8936 -56.3046 329° Northwest  Level Estimated
Mon 01:09:00 -12.7826 -56.3731 329° Northwest  Level Estimated
Mon 01:10:00 -12.6717 -56.4415 329° Northwest  Level Estimated
Mon 01:11:00 -12.5607 -56.5099 329° Northwest  Level Estimated
Mon 01:12:00 -12.4497 -56.5782 329° Northwest  Level Estimated
Mon 01:13:00 -12.3387 -56.6465 329° Northwest  Level Estimated
Mon 01:14:00 -12.2277 -56.7147 329° Northwest  Level Estimated
Mon 01:15:00 -12.1166 -56.7829 329° Northwest  Level Estimated
Mon 01:16:00 -12.0056 -56.8510 329° Northwest  Level Estimated
Mon 01:17:00 -11.8945 -56.9190 329° Northwest  Level Estimated
Mon 01:18:00 -11.7834 -56.9870 329° Northwest  Level Estimated
Mon 01:19:00 -11.6723 -57.0549 329° Northwest  Level Estimated
Mon 01:20:00 -11.5612 -57.1228 329° Northwest  Level Estimated
Mon 01:21:00 -11.4500 -57.1906 329° Northwest  Level Estimated
Mon 01:22:00 -11.3389 -57.2584 329° Northwest  Level Estimated
Mon 01:23:00 -11.2277 -57.3261 329° Northwest  Level Estimated
Mon 01:24:00 -11.1165 -57.3937 329° Northwest  Level Estimated
Mon 01:25:00 -11.0053 -57.4613 329° Northwest  Level Estimated
Mon 01:26:00 -10.8941 -57.5289 329° Northwest  Level Estimated
Mon 01:27:00 -10.7829 -57.5964 329° Northwest  Level Estimated
Mon 01:28:00 -10.6716 -57.6639 329° Northwest  Level Estimated
Mon 01:29:00 -10.5604 -57.7313 329° Northwest  Level Estimated
Mon 01:30:00 -10.4491 -57.7986 329° Northwest  Level Estimated
Mon 01:31:00 -10.3378 -57.8660 329° Northwest  Level Estimated
Mon 01:32:00 -10.2265 -57.9332 329° Northwest  Level Estimated
Mon 01:33:00 -10.1152 -58.0004 329° Northwest  Level Estimated
Mon 01:34:00 -10.0038 -58.0676 329° Northwest  Level Estimated
Mon 01:35:00 -9.8925 -58.1347 329° Northwest  Level Estimated
Mon 01:36:00 -9.7811 -58.2018 329° Northwest  Level Estimated
Mon 01:37:00 -9.6698 -58.2688 329° Northwest  Level Estimated
Mon 01:38:00 -9.5584 -58.3358 329° Northwest  Level Estimated
Mon 01:39:00 -9.4470 -58.4028 329° Northwest  Level Estimated
Mon 01:40:00 -9.3356 -58.4697 329° Northwest  Level Estimated
Mon 01:41:00 -9.2242 -58.5365 329° Northwest  Level Estimated
Mon 01:42:00 -9.1127 -58.6034 329° Northwest  Level Estimated
Mon 01:43:00 -9.0013 -58.6701 329° Northwest  Level Estimated
Mon 01:44:00 -8.8898 -58.7369 329° Northwest  Level Estimated
Mon 01:45:00 -8.7784 -58.8036 329° Northwest  Level Estimated
Mon 01:46:00 -8.6669 -58.8702 329° Northwest  Level Estimated
Mon 01:47:00 -8.5554 -58.9368 329° Northwest  Level Estimated
Mon 01:48:00 -8.4439 -59.0034 329° Northwest  Level Estimated
Mon 01:49:00 -8.3324 -59.0699 329° Northwest  Level Estimated
Mon 01:50:00 -8.2208 -59.1364 329° Northwest  Level Estimated
Mon 01:51:00 -8.1093 -59.2029 329° Northwest  Level Estimated
Mon 01:52:00 -7.9978 -59.2693 329° Northwest  Level Estimated
Mon 01:53:00 -7.8862 -59.3357 329° Northwest  Level Estimated
Mon 01:54:00 -7.7746 -59.4021 329° Northwest  Level Estimated
Mon 01:55:00 -7.6631 -59.4684 329° Northwest  Level Estimated
Mon 01:56:00 -7.5515 -59.5347 330° Northwest  Level Estimated
Mon 01:57:00 -7.4399 -59.6009 330° Northwest  Level Estimated
Mon 01:58:00 -7.3282 -59.6671 330° Northwest  Level Estimated
Mon 01:59:00 -7.2166 -59.7333 330° Northwest  Level Estimated
Mon 02:00:00 -7.1050 -59.7994 330° Northwest  Level Estimated
Mon 02:01:00 -6.9934 -59.8656 330° Northwest  Level Estimated
Mon 02:02:00 -6.8817 -59.9317 330° Northwest  Level Estimated
Mon 02:03:00 -6.7701 -59.9977 330° Northwest  Level Estimated
Mon 02:04:00 -6.6584 -60.0637 330° Northwest  Level Estimated
Mon 02:05:00 -6.5467 -60.1297 330° Northwest  Level Estimated
Mon 02:06:00 -6.4350 -60.1957 330° Northwest  Level Estimated
Mon 02:07:00 -6.3233 -60.2616 330° Northwest  Level Estimated
Mon 02:08:00 -6.2116 -60.3275 330° Northwest  Level Estimated
Mon 02:09:00 -6.0999 -60.3934 330° Northwest  Level Estimated
Mon 02:10:00 -5.9882 -60.4593 330° Northwest  Level Estimated
Mon 02:11:00 -5.8765 -60.5251 330° Northwest  Level Estimated
Mon 02:12:00 -5.7648 -60.5909 330° Northwest  Level Estimated
Mon 02:13:00 -5.6530 -60.6566 330° Northwest  Level Estimated
Mon 02:14:00 -5.5413 -60.7224 330° Northwest  Level Estimated
Mon 02:15:00 -5.4295 -60.7881 330° Northwest  Level Estimated
Mon 02:16:00 -5.3178 -60.8538 330° Northwest  Level Estimated
Mon 02:17:00 -5.2060 -60.9195 330° Northwest  Level Estimated
Mon 02:18:00 -5.0942 -60.9851 330° Northwest  Level Estimated
Mon 02:19:00 -4.9825 -61.0508 330° Northwest  Level Estimated
Mon 02:20:00 -4.8707 -61.1164 330° Northwest  Level Estimated
Mon 02:21:00 -4.7589 -61.1819 330° Northwest  Level Estimated
Mon 02:22:00 -4.6471 -61.2475 330° Northwest  Level Estimated
Mon 02:23:00 -4.5353 -61.3130 330° Northwest  Level Estimated
Mon 02:24:00 -4.4235 -61.3786 330° Northwest  Level Estimated
Mon 02:25:00 -4.3116 -61.4441 330° Northwest  Level Estimated
Mon 02:26:00 -4.1998 -61.5095 330° Northwest  Level Estimated
Mon 02:27:00 -4.0880 -61.5750 330° Northwest  Level Estimated
Mon 02:28:00 -3.9762 -61.6404 330° Northwest  Level Estimated
Mon 02:29:00 -3.8643 -61.7059 330° Northwest  Level Estimated
Mon 02:30:00 -3.7525 -61.7713 330° Northwest  Level Estimated
Mon 02:31:00 -3.6406 -61.8367 330° Northwest  Level Estimated
Mon 02:32:00 -3.5288 -61.9021 330° Northwest  Level Estimated
Mon 02:33:00 -3.4169 -61.9674 330° Northwest  Level Estimated
Mon 02:34:00 -3.3051 -62.0328 330° Northwest  Level Estimated
Mon 02:35:00 -3.1932 -62.0981 330° Northwest  Level Estimated
Mon 02:36:00 -3.0813 -62.1634 330° Northwest  Level Estimated
Mon 02:37:00 -2.9694 -62.2287 330° Northwest  Level Estimated
Mon 02:38:00 -2.8576 -62.2940 330° Northwest  Level Estimated
Mon 02:39:00 -2.7457 -62.3593 330° Northwest  Level Estimated
Mon 02:40:00 -2.6338 -62.4245 330° Northwest  Level Estimated
Mon 02:41:00 -2.5219 -62.4898 330° Northwest  Level Estimated
Mon 02:42:00 -2.4100 -62.5550 330° Northwest  Level Estimated
Mon 02:43:00 -2.2981 -62.6203 330° Northwest  Level Estimated
Mon 02:44:00 -2.1862 -62.6855 330° Northwest  Level Estimated
Mon 02:45:00 -2.0743 -62.7507 330° Northwest  Level Estimated
Mon 02:46:00 -1.9624 -62.8159 330° Northwest  Level Estimated
Mon 02:47:00 -1.8505 -62.8811 330° Northwest  Level Estimated
Mon 02:48:00 -1.7386 -62.9463 330° Northwest  Level Estimated
Mon 02:49:00 -1.6267 -63.0114 330° Northwest  Level Estimated
Mon 02:50:00 -1.5148 -63.0766 330° Northwest  Level Estimated
Mon 02:51:00 -1.4029 -63.1418 330° Northwest  Level Estimated
Mon 02:52:00 -1.2909 -63.2069 330° Northwest  Level Estimated
Mon 02:53:00 -1.1790 -63.2721 330° Northwest  Level Estimated
Mon 02:54:00 -1.0671 -63.3372 330° Northwest  Level Estimated
Mon 02:55:00 -0.9552 -63.4024 330° Northwest  Level Estimated
Mon 02:56:00 -0.8433 -63.4675 330° Northwest  Level Estimated
Mon 02:57:00 -0.7313 -63.5326 330° Northwest  Level Estimated
Mon 02:58:00 -0.6194 -63.5978 330° Northwest  Level Estimated
Mon 02:59:00 -0.5075 -63.6629 330° Northwest  Level Estimated
Mon 03:00:00 -0.3956 -63.7280 330° Northwest  Level Estimated
Mon 03:01:00 -0.2836 -63.7932 330° Northwest  Level Estimated
Mon 03:02:00 -0.1717 -63.8583 330° Northwest  Level Estimated
Mon 03:03:00 -0.0598 -63.9234 330° Northwest  Level Estimated
Mon 03:04:00 0.0522 -63.9885 330° Northwest  Level Estimated
Mon 03:05:00 0.1641 -64.0536 330° Northwest  Level Estimated
Mon 03:06:00 0.2760 -64.1188 330° Northwest  Level Estimated
Mon 03:07:00 0.3880 -64.1839 330° Northwest  Level Estimated
Mon 03:08:00 0.4999 -64.2490 330° Northwest  Level Estimated
Mon 03:09:00 0.6118 -64.3141 330° Northwest  Level Estimated
Mon 03:10:00 0.7237 -64.3792 330° Northwest  Level Estimated
Mon 03:11:00 0.8357 -64.4444 330° Northwest  Level Estimated
Mon 03:12:00 0.9476 -64.5095 330° Northwest  Level Estimated
Mon 03:13:00 1.0595 -64.5747 330° Northwest  Level Estimated
Mon 03:14:00 1.1714 -64.6398 330° Northwest  Level Estimated
Mon 03:15:00 1.2833 -64.7050 330° Northwest  Level Estimated
Mon 03:16:00 1.3952 -64.7701 330° Northwest  Level Estimated
Mon 03:17:00 1.5072 -64.8353 330° Northwest  Level Estimated
Mon 03:18:00 1.6191 -64.9005 330° Northwest  Level Estimated
Mon 03:19:00 1.7310 -64.9656 330° Northwest  Level Estimated
Mon 03:20:00 1.8429 -65.0308 330° Northwest  Level Estimated
Mon 03:21:00 1.9548 -65.0960 330° Northwest  Level Estimated
Mon 03:22:00 2.0667 -65.1612 330° Northwest  Level Estimated
Mon 03:23:00 2.1786 -65.2264 330° Northwest  Level Estimated
Mon 03:24:00 2.2905 -65.2916 330° Northwest  Level Estimated
Mon 03:25:00 2.4024 -65.3569 330° Northwest  Level Estimated
Mon 03:26:00 2.5143 -65.4221 330° Northwest  Level Estimated
Mon 03:27:00 2.6262 -65.4874 330° Northwest  Level Estimated
Mon 03:28:00 2.7381 -65.5526 330° Northwest  Level Estimated
Mon 03:29:00 2.8500 -65.6179 330° Northwest  Level Estimated
Mon 03:30:00 2.9618 -65.6832 330° Northwest  Level Estimated
Mon 03:31:00 3.0737 -65.7485 330° Northwest  Level Estimated
Mon 03:32:00 3.1856 -65.8138 330° Northwest  Level Estimated
Mon 03:33:00 3.2975 -65.8791 330° Northwest  Level Estimated
Mon 03:34:00 3.4093 -65.9445 330° Northwest  Level Estimated
Mon 03:35:00 3.5212 -66.0098 330° Northwest  Level Estimated
Mon 03:36:00 3.6330 -66.0752 330° Northwest  Level Estimated
Mon 03:37:00 3.7449 -66.1406 330° Northwest  Level Estimated
Mon 03:38:00 3.8567 -66.2060 330° Northwest  Level Estimated
Mon 03:39:00 3.9685 -66.2714 330° Northwest  Level Estimated
Mon 03:40:00 4.0804 -66.3369 330° Northwest  Level Estimated
Mon 03:41:00 4.1922 -66.4023 330° Northwest  Level Estimated
Mon 03:42:00 4.3040 -66.4678 330° Northwest  Level Estimated
Mon 03:43:00 4.4159 -66.5333 330° Northwest  Level Estimated
Mon 03:44:00 4.5277 -66.5988 330° Northwest  Level Estimated
Mon 03:45:00 4.6395 -66.6644 330° Northwest  Level Estimated
Mon 03:46:00 4.7513 -66.7299 330° Northwest  Level Estimated
Mon 03:47:00 4.8631 -66.7955 330° Northwest  Level Estimated
Mon 03:48:00 4.9749 -66.8611 330° Northwest  Level Estimated
Mon 03:49:00 5.0866 -66.9268 330° Northwest  Level Estimated
Mon 03:50:00 5.1984 -66.9924 330° Northwest  Level Estimated
Mon 03:51:00 5.3102 -67.0581 330° Northwest  Level Estimated
Mon 03:52:00 5.4219 -67.1238 330° Northwest  Level Estimated
Mon 03:53:00 5.5337 -67.1895 330° Northwest  Level Estimated
Mon 03:54:00 5.6454 -67.2552 330° Northwest  Level Estimated
Mon 03:55:00 5.7572 -67.3210 330° Northwest  Level Estimated
Mon 03:56:00 5.8689 -67.3868 330° Northwest  Level Estimated
Mon 03:57:00 5.9806 -67.4526 330° Northwest  Level Estimated
Mon 03:58:00 6.0923 -67.5185 330° Northwest  Level Estimated
Mon 03:59:00 6.2041 -67.5844 330° Northwest  Level Estimated
Mon 04:00:00 6.3158 -67.6503 330° Northwest  Level Estimated
Mon 04:01:00 6.4274 -67.7162 330° Northwest  Level Estimated
Mon 04:02:00 6.5391 -67.7821 330° Northwest  Level Estimated
Mon 04:03:00 6.6508 -67.8481 330° Northwest  Level Estimated
Mon 04:04:00 6.7625 -67.9141 330° Northwest  Level Estimated
Mon 04:05:00 6.8741 -67.9802 330° Northwest  Level Estimated
Mon 04:06:00 6.9858 -68.0463 330° Northwest  Level Estimated
Mon 04:07:00 7.0974 -68.1124 330° Northwest  Level Estimated
Mon 04:08:00 7.2090 -68.1785 330° Northwest  Level Estimated
Mon 04:09:00 7.3207 -68.2447 330° Northwest  Level Estimated
Mon 04:10:00 7.4323 -68.3109 330° Northwest  Level Estimated
Mon 04:11:00 7.5439 -68.3772 330° Northwest  Level Estimated
Mon 04:12:00 7.6555 -68.4435 330° Northwest  Level Estimated
Mon 04:13:00 7.7670 -68.5098 330° Northwest  Level Estimated
Mon 04:14:00 7.8786 -68.5761 329° Northwest  Level Estimated
Mon 04:15:00 7.9902 -68.6425 329° Northwest  Level Estimated
Mon 04:16:00 8.1017 -68.7089 329° Northwest  Level Estimated
Mon 04:17:00 8.2133 -68.7754 329° Northwest  Level Estimated
Mon 04:18:00 8.3248 -68.8419 329° Northwest  Level Estimated
Mon 04:19:00 8.4363 -68.9084 329° Northwest  Level Estimated
Mon 04:20:00 8.5478 -68.9750 329° Northwest  Level Estimated
Mon 04:21:00 8.6593 -69.0416 329° Northwest  Level Estimated
Mon 04:22:00 8.7708 -69.1083 329° Northwest  Level Estimated
Mon 04:23:00 8.8822 -69.1749 329° Northwest  Level Estimated
Mon 04:24:00 8.9937 -69.2417 329° Northwest  Level Estimated
Mon 04:25:00 9.1052 -69.3084 329° Northwest  Level Estimated
Mon 04:26:00 9.2166 -69.3753 329° Northwest  Level Estimated
Mon 04:27:00 9.3280 -69.4421 329° Northwest  Level Estimated
Mon 04:28:00 9.4394 -69.5090 329° Northwest  Level Estimated
Mon 04:29:00 9.5508 -69.5760 329° Northwest  Level Estimated
Mon 04:30:00 9.6622 -69.6430 329° Northwest  Level Estimated
Mon 04:31:00 9.7736 -69.7100 329° Northwest  Level Estimated
Mon 04:32:00 9.8849 -69.7771 329° Northwest  Level Estimated
Mon 04:33:00 9.9963 -69.8442 329° Northwest  Level Estimated
Mon 04:34:00 10.1076 -69.9113 329° Northwest  Level Estimated
Mon 04:35:00 10.2189 -69.9786 329° Northwest  Level Estimated
Mon 04:36:00 10.3302 -70.0458 329° Northwest  Level Estimated
Mon 04:37:00 10.4415 -70.1131 329° Northwest  Level Estimated
Mon 04:38:00 10.5528 -70.1805 329° Northwest  Level Estimated
Mon 04:39:00 10.6641 -70.2479 329° Northwest  Level Estimated
Mon 04:40:00 10.7753 -70.3154 329° Northwest  Level Estimated
Mon 04:41:00 10.8865 -70.3829 329° Northwest  Level Estimated
Mon 04:42:00 10.9978 -70.4504 329° Northwest  Level Estimated
Mon 04:43:00 11.1089 -70.5180 329° Northwest  Level Estimated
Mon 04:44:00 11.2201 -70.5857 329° Northwest  Level Estimated
Mon 04:45:00 11.3313 -70.6534 329° Northwest  Level Estimated
Mon 04:46:00 11.4425 -70.7212 329° Northwest  Level Estimated
Mon 04:47:00 11.5536 -70.7890 329° Northwest  Level Estimated
Mon 04:48:00 11.6647 -70.8568 329° Northwest  Level Estimated
Mon 04:49:00 11.7758 -70.9248 329° Northwest  Level Estimated
Mon 04:50:00 11.8869 -70.9927 329° Northwest  Level Estimated
Mon 04:51:00 11.9980 -71.0608 329° Northwest  Level Estimated
Mon 04:52:00 12.1091 -71.1289 329° Northwest  Level Estimated
Mon 04:53:00 12.2201 -71.1970 329° Northwest  Level Estimated
Mon 04:54:00 12.3311 -71.2652 329° Northwest  Level Estimated
Mon 04:55:00 12.4422 -71.3335 329° Northwest  Level Estimated
Mon 04:56:00 12.5531 -71.4018 329° Northwest  Level Estimated
Mon 04:57:00 12.6641 -71.4702 329° Northwest  Level Estimated
Mon 04:58:00 12.7751 -71.5386 329° Northwest  Level Estimated
Mon 04:59:00 12.8860 -71.6071 329° Northwest  Level Estimated
Mon 05:00:00 12.9969 -71.6757 329° Northwest  Level Estimated
Mon 05:01:00 13.1078 -71.7443 329° Northwest  Level Estimated
Mon 05:02:00 13.2187 -71.8130 329° Northwest  Level Estimated
Mon 05:03:00 13.3296 -71.8817 329° Northwest  Level Estimated
Mon 05:04:00 13.4404 -71.9505 329° Northwest  Level Estimated
Mon 05:05:00 13.5513 -72.0194 329° Northwest  Level Estimated
Mon 05:06:00 13.6621 -72.0883 329° Northwest  Level Estimated
Mon 05:07:00 13.7729 -72.1573 329° Northwest  Level Estimated
Mon 05:08:00 13.8836 -72.2264 329° Northwest  Level Estimated
Mon 05:09:00 13.9944 -72.2955 329° Northwest  Level Estimated
Mon 05:10:00 14.1051 -72.3647 329° Northwest  Level Estimated
Mon 05:11:00 14.2158 -72.4340 329° Northwest  Level Estimated
Mon 05:12:00 14.3265 -72.5033 329° Northwest  Level Estimated
Mon 05:13:00 14.4372 -72.5727 329° Northwest  Level Estimated
Mon 05:14:00 14.5478 -72.6422 329° Northwest  Level Estimated
Mon 05:15:00 14.6585 -72.7117 329° Northwest  Level Estimated
Mon 05:16:00 14.7691 -72.7814 329° Northwest  Level Estimated
Mon 05:17:00 14.8797 -72.8510 329° Northwest  Level Estimated
Mon 05:18:00 14.9902 -72.9208 329° Northwest  Level Estimated
Mon 05:19:00 15.1008 -72.9906 329° Northwest  Level Estimated
Mon 05:20:00 15.2113 -73.0605 329° Northwest  Level Estimated
Mon 05:21:00 15.3218 -73.1305 329° Northwest  Level Estimated
Mon 05:22:00 15.4323 -73.2005 329° Northwest  Level Estimated
Mon 05:23:00 15.5428 -73.2707 329° Northwest  Level Estimated
Mon 05:24:00 15.6532 -73.3409 329° Northwest  Level Estimated
Mon 05:25:00 15.7636 -73.4111 329° Northwest  Level Estimated
Mon 05:26:00 15.8741 -73.4815 328° Northwest  Level Estimated
Mon 05:27:00 15.9844 -73.5519 328° Northwest  Level Estimated
Mon 05:28:00 16.0948 -73.6224 328° Northwest  Level Estimated
Mon 05:29:00 16.2051 -73.6930 328° Northwest  Level Estimated
Mon 05:30:00 16.3154 -73.7636 328° Northwest  Level Estimated
Mon 05:31:00 16.4257 -73.8344 328° Northwest  Level Estimated
Mon 05:32:00 16.5359 -73.9052 328° Northwest  Level Estimated
Mon 05:33:00 16.6462 -73.9761 328° Northwest  Level Estimated
Mon 05:34:00 16.7564 -74.0471 328° Northwest  Level Estimated
Mon 05:35:00 16.8666 -74.1182 328° Northwest  Level Estimated
Mon 05:36:00 16.9767 -74.1893 328° Northwest  Level Estimated
Mon 05:37:00 17.0869 -74.2605 328° Northwest  Level Estimated
Mon 05:38:00 17.1970 -74.3319 328° Northwest  Level Estimated
Mon 05:39:00 17.3071 -74.4033 328° Northwest  Level Estimated
Mon 05:40:00 17.4171 -74.4747 328° Northwest  Level Estimated
Mon 05:41:00 17.5271 -74.5463 328° Northwest  Level Estimated
Mon 05:42:00 17.6372 -74.6180 328° Northwest  Level Estimated
Mon 05:43:00 17.7471 -74.6897 328° Northwest  Level Estimated
Mon 05:44:00 17.8571 -74.7616 328° Northwest  Level Estimated
Mon 05:45:00 17.9670 -74.8335 328° Northwest  Level Estimated
Mon 05:46:00 18.0769 -74.9055 328° Northwest  Level Estimated
Mon 05:47:00 18.1868 -74.9776 328° Northwest  Level Estimated
Mon 05:48:00 18.2967 -75.0498 328° Northwest  Level Estimated
Mon 05:49:00 18.4065 -75.1221 328° Northwest  Level Estimated
Mon 05:50:00 18.5163 -75.1945 328° Northwest  Level Estimated
Mon 05:51:00 18.6261 -75.2669 328° Northwest  Level Estimated
Mon 05:52:00 18.7358 -75.3395 328° Northwest  Level Estimated
Mon 05:53:00 18.8455 -75.4122 328° Northwest  Level Estimated
Mon 05:54:00 18.9552 -75.4849 328° Northwest  Level Estimated
Mon 05:55:00 19.0648 -75.5578 328° Northwest  Level Estimated
Mon 05:56:00 19.1745 -75.6307 328° Northwest  Level Estimated
Mon 05:57:00 19.2841 -75.7038 328° Northwest  Level Estimated
Mon 05:58:00 19.3936 -75.7769 328° Northwest  Level Estimated
Mon 05:59:00 19.5032 -75.8502 328° Northwest  Level Estimated
Mon 06:00:00 19.6127 -75.9235 328° Northwest  Level Estimated
Mon 06:01:00 19.7222 -75.9969 328° Northwest  Level Estimated
Mon 06:02:00 19.8316 -76.0705 328° Northwest  Level Estimated
Mon 06:03:00 19.9410 -76.1441 328° Northwest  Level Estimated
Mon 06:04:00 20.0504 -76.2178 328° Northwest  Level Estimated
Mon 06:05:00 20.1598 -76.2917 328° Northwest  Level Estimated
Mon 06:06:00 20.2691 -76.3656 328° Northwest  Level Estimated
Mon 06:07:00 20.3784 -76.4397 328° Northwest  Level Estimated
Mon 06:08:00 20.4877 -76.5139 328° Northwest  Level Estimated
Mon 06:09:00 20.5969 -76.5881 328° Northwest  Level Estimated
Mon 06:10:00 20.7061 -76.6625 328° Northwest  Level Estimated
Mon 06:11:00 20.8153 -76.7370 327° Northwest  Level Estimated
Mon 06:12:00 20.9244 -76.8116 327° Northwest  Level Estimated
Mon 06:13:00 21.0335 -76.8863 327° Northwest  Level Estimated
Mon 06:14:00 21.1426 -76.9611 327° Northwest  Level Estimated
Mon 06:15:00 21.2516 -77.0360 327° Northwest  Level Estimated
Mon 06:16:00 21.3607 -77.1110 327° Northwest  Level Estimated
Mon 06:17:00 21.4678 -77.1849 327° Northwest  Level Estimated
Mon 06:17:27 22.9800 -77.8269 327° Northwest 486 559 36,000  Level Miami Center
Mon 06:18:00 21.5749 -77.2589 327° Northwest  Level Estimated
Mon 06:18:27 23.0883 -77.8911 331° Northwest 467 537 36,000  Level Miami Center
Mon 06:19:00 21.6820 -77.3330 327° Northwest  Level Estimated
Mon 06:19:27 23.1986 -77.9531 333° Northwest 455 524 36,000  Level Miami Center
Mon 06:20:00 21.7891 -77.4072 327° Northwest  Level Estimated
Mon 06:20:27 23.3089 -78.0286 328° Northwest 461 531 36,000  Level Miami Center
Mon 06:21:00 21.8961 -77.4815 327° Northwest  Level Estimated
Mon 06:21:27 23.4211 -78.0975 331° Northwest 461 531 36,000  Level Miami Center
Mon 06:22:00 22.0031 -77.5560 327° Northwest  Level Estimated
Mon 06:22:27 23.5311 -78.1642 331° Northwest 461 531 36,000  Level Miami Center
Mon 06:23:27 23.6475 -78.2425 328° Northwest 472 543 36,000  Level Miami Center
Mon 06:24:27 23.7556 -78.3097 330° Northwest 466 536 36,000  Level Miami Center
Mon 06:25:27 23.8719 -78.3836 330° Northwest 466 536 36,000  Level Miami Center
Mon 06:26:27 23.9717 -78.4461 330° Northwest 472 543 36,000  Level Miami Center
Mon 06:27:27 24.0794 -78.5250 326° Northwest 459 528 36,000  Level Miami Center
Mon 06:28:27 24.1828 -78.6061 324° Northwest 459 528 36,000  Level Miami Center
Mon 06:29:27 24.2864 -78.6872 324° Northwest 459 528 36,000 -850 Level Miami Center
Mon 06:30:27 24.3858 -78.7639 325° Northwest 452 520 34,300 -1,800 Descending Miami Center
Mon 06:31:27 24.4850 -78.8386 326° Northwest 438 504 32,400 -1,900 Descending Miami Center
Mon 06:32:27 24.5739 -78.9131 323° Northwest 425 489 30,500 -1,750 Descending Miami Center
Mon 06:33:27 24.6794 -78.9950 325° Northwest 425 489 28,900 -1,849 Descending Miami Center
Mon 06:39:32 25.2320 -79.3170 325° Northwest 364 419 17,400 -1,926 Descending FlightAware
Mon 06:40:12 25.2850 -79.3730 316° Northwest 363 418 15,900 -1,765 Descending FlightAware
Mon 06:40:57 25.3360 -79.4370 311° West 354 407 14,900 -1,333 Descending FlightAware
Mon 06:41:42 25.3770 -79.5000 306° West 338 389 13,900 -1,694 Descending FlightAware
Mon 06:42:22 25.4160 -79.5590 306° West 345 397 12,500 -1,500 Descending FlightAware
Mon 06:43:02 25.4540 -79.6140 307° West 343 395 11,900 -424 Descending FlightAware
Mon 06:43:47 25.4970 -79.6740 308° West 338 389 11,900  Level FlightAware
Mon 06:44:27 25.5300 -79.7200 308° West 338 389 11,900 -212 Level FlightAware
Mon 06:45:12 25.5770 -79.7870 308° West 308 354 11,600 -675 Descending FlightAware
Mon 06:45:47 25.5890 -79.8410 284° West 295 339 11,000 -1,050 Descending FlightAware
Mon 06:46:32 25.6050 -79.9070 285° West 287 330 10,200 -1,120 Descending FlightAware
Mon 06:47:02 25.6110 -79.9470 279° West 287 330 9,600 -1,309 Descending FlightAware
Mon 06:47:27 25.6090 -79.9840 267° West 283 326 9,000 -1,418 Descending FlightAware
Mon 06:47:57 25.6070 -80.0290 267° West 291 335 8,300 -1,200 Descending FlightAware
Mon 06:48:22 25.6130 -80.0660 280° West 282 325 7,900 -450 Descending FlightAware
Mon 06:48:37 25.6210 -80.0830 298° West 268 308 8,000 133 Climbing FlightAware
Mon 06:49:07 25.6460 -80.1160 310° West 270 311 8,000 -109 Level FlightAware
Mon 06:49:32 25.6630 -80.1450 303° West 268 308 7,900 -109 Descending FlightAware
Mon 06:50:02 25.6740 -80.1840 287° West 268 308 7,900 -120 Level FlightAware
Mon 06:50:22 25.6790 -80.2110 282° West 274 315 7,800 -1,309 Descending FlightAware
Mon 06:50:57 25.6760 -80.2620 266° West 267 307 6,700 -2,123 Descending FlightAware
Mon 06:51:27 25.6720 -80.3020 264° West 261 300 5,500 -1,867 Descending FlightAware
Mon 06:51:42 25.6710 -80.3200 266° West 250 288 5,300 -1,543 Descending FlightAware
Mon 06:52:02 25.6680 -80.3460 263° West 242 278 4,600 -1,636 Descending FlightAware
Mon 06:52:37 25.6650 -80.3870 265° West 226 260 3,800 -1,200 Descending FlightAware
Mon 06:52:52 25.6630 -80.4050 263° West 219 252 3,600 -750 Descending FlightAware
Mon 06:53:17 25.6610 -80.4320 265° West 208 239 3,300 -655 Descending FlightAware
Mon 06:53:47 25.6580 -80.4620 264° West 200 230 3,000 -369 Descending FlightAware
Mon 06:54:22 25.6640 -80.4980 280° West 201 231 2,900  Descending FlightAware
Mon 06:54:57 25.6930 -80.5070 344° North 193 222 3,000  Climbing FlightAware
Mon 06:55:22 25.7170 -80.5100 354° North 196 226 2,900 -150 Descending FlightAware
Mon 06:55:37 25.7310 -80.5110 356° North 196 226 2,900  Level FlightAware
Mon 06:55:57 25.7490 -80.5130 354° North 194 223 2,900 133 Level FlightAware
Mon 06:56:22 25.7690 -80.5020 26° Northeast 183 211 3,000  Climbing FlightAware
Mon 06:56:47 25.7780 -80.4810 65° Northeast 179 206 2,900 -667 Descending FlightAware
Mon 06:57:07 25.7800 -80.4630 83° East 178 205 2,500 -982 Descending FlightAware
Mon 06:57:42 25.7810 -80.4330 88° East 168 193 2,000 -923 Descending FlightAware
Mon 06:58:12 25.7820 -80.4050 88° East 163 188 1,500 -500 Descending FlightAware
Mon 06:58:42 25.7830 -80.3820 87° East 162 186 1,500 -764 Level FlightAware
Mon 06:59:07 25.7840 -80.3610 87° East 157 181 800 -1,200 Descending FlightAware
Mon 06:59:32 25.7850 -80.3420 87° East 156 180 500 -360 Descending FlightAware
Mon 06:59:57 25.7850 -80.3230 90° East 156 180 500  Level FlightAware

Login

Don't have an account? Register now (free) for customized features, flight alerts, and more!